createdAt,value
2022-08-17T00:00:11.991Z,19.46
2022-08-17T00:03:05.955Z,19.39
2022-08-17T00:05:37.887Z,19.39
2022-08-17T00:08:05.713Z,19.37
2022-08-17T00:10:33.638Z,19.28
2022-08-17T00:13:05.539Z,19.24
2022-08-17T00:15:33.775Z,19.24
2022-08-17T00:18:01.782Z,19.21
2022-08-17T00:20:33.600Z,19.22
2022-08-17T00:23:04.418Z,19.24
2022-08-17T00:25:32.712Z,19.23
2022-08-17T00:28:00.924Z,19.20
2022-08-17T00:30:29.551Z,19.22
2022-08-17T00:33:14.482Z,19.23
2022-08-17T00:35:45.950Z,19.26
2022-08-17T00:38:13.965Z,19.32
2022-08-17T00:40:44.876Z,19.38
2022-08-17T00:43:18.909Z,19.36
2022-08-17T00:45:47.917Z,19.35
2022-08-17T00:48:29.851Z,19.30
2022-08-17T00:50:58.325Z,19.19
2022-08-17T00:53:28.981Z,19.17
2022-08-17T00:55:58.161Z,19.23
2022-08-17T00:58:35.827Z,19.23
2022-08-17T01:01:05.747Z,19.19
2022-08-17T01:03:35.297Z,19.17
2022-08-17T01:06:04.494Z,19.17
2022-08-17T01:08:34.426Z,19.15
2022-08-17T01:11:02.863Z,19.08
2022-08-17T01:13:39.779Z,19.10
2022-08-17T01:16:20.954Z,19.11
2022-08-17T01:18:50.836Z,19.12
2022-08-17T01:21:32.161Z,19.14
2022-08-17T01:24:00.740Z,19.18
2022-08-17T01:26:29.972Z,19.24
2022-08-17T01:28:57.812Z,19.24
2022-08-17T01:31:28.842Z,19.19
2022-08-17T01:33:59.621Z,19.12
2022-08-17T01:36:29.572Z,19.13
2022-08-17T01:38:57.561Z,19.15
2022-08-17T01:41:26.003Z,19.12
2022-08-17T01:43:59.241Z,19.07
2022-08-17T01:46:28.968Z,19.02
2022-08-17T01:48:57.675Z,18.95
2022-08-17T01:51:29.590Z,18.86
2022-08-17T01:53:58.511Z,18.83
2022-08-17T01:56:28.900Z,18.89
2022-08-17T01:58:57.054Z,18.91
2022-08-17T02:01:26.653Z,18.84
2022-08-17T02:04:00.487Z,18.79
2022-08-17T02:06:31.423Z,18.82
2022-08-17T02:09:16.643Z,18.80
2022-08-17T02:11:45.357Z,18.77
2022-08-17T02:14:14.492Z,18.73
2022-08-17T02:16:42.424Z,18.74
2022-08-17T02:19:12.366Z,18.71
2022-08-17T02:21:41.463Z,18.67
2022-08-17T02:24:11.783Z,18.63
2022-08-17T02:26:41.077Z,18.55
2022-08-17T02:29:09.065Z,18.61
2022-08-17T02:31:38.062Z,18.67
2022-08-17T02:34:06.371Z,18.65
2022-08-17T02:36:35.065Z,18.57
2022-08-17T02:39:04.598Z,18.60
2022-08-17T02:41:33.320Z,18.66
2022-08-17T02:44:01.230Z,18.73
2022-08-17T02:46:30.532Z,18.79
2022-08-17T02:48:59.191Z,18.82
2022-08-17T02:51:27.705Z,18.79
2022-08-17T02:54:39.170Z,18.78
2022-08-17T02:56:44.169Z,18.70
2022-08-17T02:59:11.921Z,18.62
2022-08-17T03:01:39.744Z,18.54
2022-08-17T03:04:08.172Z,18.51
2022-08-17T03:06:37.441Z,18.45
2022-08-17T03:09:05.284Z,18.45
2022-08-17T03:11:33.141Z,18.53
2022-08-17T03:14:00.961Z,18.53
2022-08-17T03:16:28.714Z,18.56
2022-08-17T03:18:57.096Z,18.61
2022-08-17T03:21:25.073Z,18.55
2022-08-17T03:23:54.608Z,18.55
2022-08-17T03:26:22.848Z,18.58
2022-08-17T03:28:50.675Z,18.62
2022-08-17T03:31:18.918Z,18.59
2022-08-17T03:33:47.009Z,18.59
2022-08-17T03:36:15.003Z,18.59
2022-08-17T03:38:42.902Z,18.55
2022-08-17T03:41:14.026Z,18.58
2022-08-17T03:43:41.883Z,18.63
2022-08-17T03:46:35.289Z,18.63
2022-08-17T03:49:23.746Z,18.76
2022-08-17T03:52:10.579Z,19.02
2022-08-17T03:54:57.466Z,19.31
2022-08-17T03:57:26.432Z,19.62
2022-08-17T03:59:54.665Z,19.88
2022-08-17T04:02:24.337Z,20.09
2022-08-17T04:04:52.814Z,20.25
2022-08-17T04:07:22.008Z,20.19
2022-08-17T04:09:50.129Z,20.04
2022-08-17T04:12:19.247Z,19.89
2022-08-17T04:14:53.286Z,19.84
2022-08-17T04:17:24.248Z,19.75
2022-08-17T04:19:53.086Z,19.74
2022-08-17T04:22:33.121Z,19.72
2022-08-17T04:25:07.121Z,19.41
2022-08-17T04:27:35.055Z,19.28
2022-08-17T04:30:03.192Z,19.28
2022-08-17T04:33:05.191Z,19.25
2022-08-17T04:35:24.803Z,19.42
2022-08-17T04:37:52.819Z,19.80
2022-08-17T04:40:39.905Z,20.18
2022-08-17T04:43:09.415Z,20.45
2022-08-17T04:45:41.091Z,20.61
2022-08-17T04:48:29.737Z,20.77
2022-08-17T04:51:07.446Z,20.80
2022-08-17T04:53:35.886Z,20.89
2022-08-17T04:56:04.508Z,20.95
2022-08-17T04:58:32.309Z,20.97
2022-08-17T05:01:00.254Z,21.05
2022-08-17T05:03:28.316Z,21.01
2022-08-17T05:05:56.095Z,20.98
2022-08-17T05:08:23.999Z,20.98
2022-08-17T05:10:52.252Z,21.06
2022-08-17T05:13:22.228Z,21.13
2022-08-17T05:15:53.508Z,21.02
2022-08-17T05:18:22.331Z,20.94
2022-08-17T05:20:52.940Z,20.80
2022-08-17T05:23:21.867Z,20.64
2022-08-17T05:25:51.795Z,20.55
2022-08-17T05:28:24.257Z,20.56
2022-08-17T05:30:56.650Z,20.54
2022-08-17T05:33:26.512Z,20.48
2022-08-17T05:35:55.883Z,20.45
2022-08-17T05:38:25.692Z,20.48
2022-08-17T05:40:54.431Z,20.58
2022-08-17T05:43:24.478Z,20.65
2022-08-17T05:46:05.304Z,20.70
2022-08-17T05:48:39.931Z,20.73
2022-08-17T05:51:27.032Z,20.86
2022-08-17T05:53:58.753Z,21.07
2022-08-17T05:56:36.741Z,21.36
2022-08-17T05:59:10.866Z,21.66
2022-08-17T06:01:51.261Z,21.89
2022-08-17T06:04:28.476Z,22.16
2022-08-17T06:07:12.183Z,22.37
2022-08-17T06:09:40.166Z,22.61
2022-08-17T06:12:21.567Z,22.85
2022-08-17T06:14:55.453Z,23.10
2022-08-17T06:17:25.240Z,23.42
2022-08-17T06:19:56.125Z,24.23
2022-08-17T06:22:27.610Z,25.51
2022-08-17T06:25:02.182Z,26.82
2022-08-17T06:27:38.869Z,28.01
2022-08-17T06:30:09.409Z,29.08
2022-08-17T06:32:42.874Z,29.97
2022-08-17T06:35:19.413Z,30.40
2022-08-17T06:37:58.416Z,31.04
2022-08-17T06:40:29.216Z,31.80
2022-08-17T06:43:06.625Z,32.65
2022-08-17T06:45:38.204Z,33.20
2022-08-17T06:48:15.459Z,33.96
2022-08-17T06:50:46.238Z,34.35
2022-08-17T06:53:14.139Z,35.18
2022-08-17T06:55:48.427Z,35.77
2022-08-17T06:58:21.244Z,36.25
2022-08-17T07:00:56.601Z,36.07
2022-08-17T07:03:32.053Z,35.91
2022-08-17T07:06:19.493Z,36.01
2022-08-17T07:08:47.669Z,34.84
2022-08-17T07:11:17.352Z,34.42
2022-08-17T07:13:51.142Z,34.10
2022-08-17T07:16:20.463Z,33.57
2022-08-17T07:18:51.222Z,32.79
2022-08-17T07:21:29.334Z,32.21
2022-08-17T07:24:03.937Z,30.74
2022-08-17T07:26:31.762Z,29.67
2022-08-17T07:29:00.814Z,29.26
2022-08-17T07:31:30.590Z,29.18
2022-08-17T07:34:00.966Z,29.36
2022-08-17T07:36:33.797Z,29.65
2022-08-17T07:39:02.728Z,30.02
2022-08-17T07:41:53.042Z,30.38
2022-08-17T07:44:21.920Z,30.54
2022-08-17T07:47:10.872Z,30.76
2022-08-17T07:49:40.687Z,30.92
2022-08-17T07:52:13.398Z,30.96
2022-08-17T07:54:57.818Z,30.86
2022-08-17T07:57:33.560Z,30.90
2022-08-17T08:00:01.629Z,31.28
2022-08-17T08:02:38.522Z,31.69
2022-08-17T08:05:29.934Z,31.64
2022-08-17T08:08:18.547Z,31.78
2022-08-17T08:10:57.592Z,32.11
2022-08-17T08:13:28.924Z,32.44
2022-08-17T08:16:11.870Z,32.27
2022-08-17T08:18:55.905Z,31.72
2022-08-17T08:21:29.104Z,31.23
2022-08-17T08:24:05.572Z,31.11
2022-08-17T08:26:43.068Z,30.74
2022-08-17T08:29:10.930Z,30.39
2022-08-17T08:31:42.204Z,30.33
2022-08-17T08:34:53.163Z,30.47
2022-08-17T08:37:34.470Z,30.15
2022-08-17T08:40:13.354Z,29.85
2022-08-17T08:43:00.147Z,29.65
2022-08-17T08:45:32.123Z,29.56
2022-08-17T08:48:22.698Z,29.91
2022-08-17T08:50:54.570Z,30.51
2022-08-17T08:53:26.697Z,31.17
2022-08-17T08:56:13.703Z,31.90
2022-08-17T08:59:03.484Z,31.89
2022-08-17T09:01:38.235Z,32.23
2022-08-17T09:04:25.829Z,33.15
2022-08-17T09:07:00.826Z,33.55
2022-08-17T09:09:48.308Z,33.56
2022-08-17T09:12:31.567Z,33.26
2022-08-17T09:15:12.969Z,33.82
2022-08-17T09:18:08.572Z,34.12
2022-08-17T09:20:50.054Z,33.72
2022-08-17T09:23:39.600Z,33.39
2022-08-17T09:26:22.575Z,33.49
2022-08-17T09:28:51.894Z,34.12
2022-08-17T09:31:32.769Z,34.57
2022-08-17T09:34:12.833Z,34.73
2022-08-17T09:37:01.968Z,34.87
2022-08-17T09:39:34.714Z,34.55
2022-08-17T09:42:10.601Z,34.28
2022-08-17T09:44:40.281Z,34.38
2022-08-17T09:47:26.653Z,34.36
2022-08-17T09:50:00.486Z,33.76
2022-08-17T09:52:29.539Z,32.71
2022-08-17T09:54:59.295Z,31.81
2022-08-17T09:57:31.350Z,31.37
2022-08-17T09:59:59.280Z,31.26
2022-08-17T10:02:40.621Z,31.07
2022-08-17T10:05:13.901Z,31.18
2022-08-17T10:08:02.391Z,31.66
2022-08-17T10:10:37.570Z,31.68
2022-08-17T10:13:19.705Z,31.42
2022-08-17T10:16:00.584Z,31.65
2022-08-17T10:18:35.301Z,32.08
2022-08-17T10:21:29.786Z,32.44
2022-08-17T10:24:28.007Z,32.68
2022-08-17T10:26:58.251Z,32.66
2022-08-17T10:29:29.126Z,32.86
2022-08-17T10:32:03.541Z,32.97
2022-08-17T10:34:44.307Z,32.96
2022-08-17T10:37:22.772Z,33.00
2022-08-17T10:40:09.585Z,33.12
2022-08-17T10:42:44.503Z,33.46
2022-08-17T10:45:18.035Z,33.72
2022-08-17T10:48:05.239Z,33.48
2022-08-17T10:50:47.604Z,33.58
2022-08-17T10:53:46.073Z,33.32
2022-08-17T10:56:14.055Z,33.50
2022-08-17T10:58:55.863Z,33.18
2022-08-17T11:01:33.182Z,33.16
2022-08-17T11:04:08.997Z,33.11
2022-08-17T11:06:42.060Z,33.29
2022-08-17T11:09:15.995Z,33.28
2022-08-17T11:11:55.782Z,33.37
2022-08-17T11:14:26.334Z,33.25
2022-08-17T11:17:13.129Z,33.43
2022-08-17T11:19:57.381Z,33.57
2022-08-17T11:22:33.599Z,33.78
2022-08-17T11:25:14.197Z,33.57
2022-08-17T11:27:43.091Z,33.35
2022-08-17T11:30:13.041Z,33.49
2022-08-17T11:32:47.378Z,33.43
2022-08-17T11:35:21.835Z,33.32
2022-08-17T11:37:50.010Z,33.50
2022-08-17T11:40:17.826Z,33.44
2022-08-17T11:42:51.614Z,33.17
2022-08-17T11:45:32.313Z,33.05
2022-08-17T11:48:32.068Z,32.96
2022-08-17T11:51:25.125Z,33.05
2022-08-17T11:54:21.533Z,33.28
2022-08-17T11:56:49.161Z,33.17
2022-08-17T11:59:59.081Z,33.14
2022-08-17T12:02:31.589Z,32.61
2022-08-17T12:05:02.015Z,32.45
2022-08-17T12:07:32.552Z,32.78
2022-08-17T12:10:01.043Z,32.65
2022-08-17T12:12:33.221Z,32.49
2022-08-17T12:15:10.718Z,32.62
2022-08-17T12:17:42.656Z,32.51
2022-08-17T12:20:20.047Z,32.67
2022-08-17T12:23:04.182Z,32.81
2022-08-17T12:25:45.719Z,32.31
2022-08-17T12:28:26.501Z,31.99
2022-08-17T12:30:56.502Z,32.10
2022-08-17T12:33:28.400Z,32.35
2022-08-17T12:36:08.590Z,32.42
2022-08-17T12:38:38.169Z,32.55
2022-08-17T12:41:26.302Z,32.56
2022-08-17T12:43:58.723Z,32.47
2022-08-17T12:46:26.625Z,32.51
2022-08-17T12:48:58.684Z,32.59
2022-08-17T12:51:29.183Z,32.73
2022-08-17T12:53:57.160Z,32.83
2022-08-17T12:56:25.375Z,32.69
2022-08-17T12:58:54.512Z,32.73
2022-08-17T13:01:25.140Z,32.90
2022-08-17T13:03:55.099Z,32.84
2022-08-17T13:06:31.549Z,32.69
2022-08-17T13:09:12.694Z,32.77
2022-08-17T13:11:48.762Z,32.89
2022-08-17T13:14:19.360Z,32.83
2022-08-17T13:16:52.600Z,32.79
2022-08-17T13:19:29.734Z,32.63
2022-08-17T13:22:11.480Z,32.39
2022-08-17T13:24:49.110Z,32.18
2022-08-17T13:27:20.320Z,32.28
2022-08-17T13:29:53.778Z,32.49
2022-08-17T13:32:23.597Z,32.50
2022-08-17T13:35:12.516Z,32.21
2022-08-17T13:37:56.760Z,32.21
2022-08-17T13:40:26.284Z,32.49
2022-08-17T13:42:55.528Z,32.62
2022-08-17T13:45:36.623Z,32.52
2022-08-17T13:48:16.146Z,32.13
2022-08-17T13:50:59.688Z,31.70
2022-08-17T13:53:37.382Z,31.29
2022-08-17T13:56:38.373Z,31.49
2022-08-17T13:59:00.979Z,31.67
2022-08-17T14:01:34.913Z,31.63
2022-08-17T14:04:13.533Z,31.65
2022-08-17T14:06:55.589Z,31.44
2022-08-17T14:09:49.449Z,31.20
2022-08-17T14:12:19.963Z,30.60
2022-08-17T14:14:49.704Z,30.51
2022-08-17T14:17:18.763Z,30.57
2022-08-17T14:19:46.528Z,30.63
2022-08-17T14:22:31.427Z,30.85
2022-08-17T14:25:01.652Z,31.13
2022-08-17T14:27:33.655Z,31.01
2022-08-17T14:30:10.553Z,30.81
2022-08-17T14:32:41.688Z,30.64
2022-08-17T14:35:11.813Z,30.32
2022-08-17T14:37:39.775Z,30.10
2022-08-17T14:40:10.730Z,29.70
2022-08-17T14:42:39.934Z,29.73
2022-08-17T14:45:32.325Z,29.94
2022-08-17T14:47:57.772Z,30.20
2022-08-17T14:50:25.887Z,30.46
2022-08-17T14:52:56.411Z,30.67
2022-08-17T14:55:26.583Z,30.79
2022-08-17T14:57:54.558Z,30.84
2022-08-17T15:00:23.064Z,30.79
2022-08-17T15:02:53.890Z,30.57
2022-08-17T15:05:24.814Z,30.37
2022-08-17T15:07:53.665Z,30.22
2022-08-17T15:10:22.074Z,29.98
2022-08-17T15:12:49.962Z,29.84
2022-08-17T15:15:18.267Z,29.91
2022-08-17T15:17:46.411Z,30.04
2022-08-17T15:20:16.024Z,30.12
2022-08-17T15:22:45.542Z,30.18
2022-08-17T15:25:13.939Z,30.19
2022-08-17T15:27:42.088Z,30.18
2022-08-17T15:30:10.263Z,29.98
2022-08-17T15:32:39.649Z,29.82
2022-08-17T15:35:11.833Z,29.47
2022-08-17T15:37:40.537Z,28.68
2022-08-17T15:40:09.240Z,27.32
2022-08-17T15:42:37.378Z,26.19
2022-08-17T15:45:07.486Z,25.63
2022-08-17T15:47:36.719Z,25.19
2022-08-17T15:50:08.798Z,24.80
2022-08-17T15:52:40.292Z,24.48
2022-08-17T15:55:12.545Z,23.93
2022-08-17T15:57:40.777Z,23.52
2022-08-17T16:00:09.359Z,23.50
2022-08-17T16:03:45.712Z,23.43
2022-08-17T16:05:31.127Z,23.45
2022-08-17T16:07:59.959Z,23.48
2022-08-17T16:10:35.365Z,23.57
2022-08-17T16:13:04.381Z,23.73
2022-08-17T16:15:32.435Z,23.90
2022-08-17T16:18:00.445Z,24.07
2022-08-17T16:20:28.484Z,24.25
2022-08-17T16:22:56.961Z,24.46
2022-08-17T16:25:40.307Z,24.66
2022-08-17T16:28:17.489Z,24.85
2022-08-17T16:30:45.612Z,25.01
2022-08-17T16:33:13.844Z,25.10
2022-08-17T16:35:42.195Z,25.12
2022-08-17T16:38:11.096Z,25.16
2022-08-17T16:40:39.234Z,25.22
2022-08-17T16:43:12.235Z,25.26
2022-08-17T16:45:41.204Z,25.32
2022-08-17T16:48:09.887Z,25.35
2022-08-17T16:50:37.672Z,25.37
2022-08-17T16:53:06.716Z,25.43
2022-08-17T16:55:37.362Z,25.38
2022-08-17T16:58:05.453Z,25.16
2022-08-17T17:00:34.071Z,24.90
2022-08-17T17:03:19.529Z,24.87
2022-08-17T17:05:56.231Z,24.94
2022-08-17T17:08:34.925Z,24.96
2022-08-17T17:11:09.160Z,24.93
2022-08-17T17:13:43.789Z,24.84
2022-08-17T17:16:16.769Z,24.70
2022-08-17T17:19:08.063Z,24.53
2022-08-17T17:21:42.727Z,24.32
2022-08-17T17:24:14.128Z,24.13
2022-08-17T17:26:48.783Z,24.01
2022-08-17T17:29:22.420Z,23.90
2022-08-17T17:32:09.556Z,23.84
2022-08-17T17:34:38.569Z,23.73
2022-08-17T17:37:10.505Z,23.65
2022-08-17T17:39:53.910Z,23.57
2022-08-17T17:42:23.872Z,23.44
2022-08-17T17:45:01.100Z,23.34
2022-08-17T17:47:29.760Z,23.26
2022-08-17T17:50:00.521Z,23.17
2022-08-17T17:52:47.609Z,23.09
2022-08-17T17:55:15.618Z,22.97
2022-08-17T17:57:49.562Z,22.85
2022-08-17T18:00:21.623Z,22.77
2022-08-17T18:03:09.483Z,22.68
2022-08-17T18:05:44.576Z,22.55
2022-08-17T18:08:44.908Z,22.43
2022-08-17T18:11:24.670Z,22.36
2022-08-17T18:14:14.738Z,22.28
2022-08-17T18:16:43.613Z,22.21
2022-08-17T18:19:13.208Z,22.10
2022-08-17T18:21:46.105Z,22.01
2022-08-17T18:24:14.030Z,21.96
2022-08-17T18:26:44.741Z,21.91
2022-08-17T18:29:30.476Z,21.89
2022-08-17T18:32:24.673Z,21.86
2022-08-17T18:34:57.447Z,21.83
2022-08-17T18:37:40.263Z,21.82
2022-08-17T18:40:17.202Z,21.82
2022-08-17T18:42:55.500Z,21.82
2022-08-17T18:45:33.617Z,21.85
2022-08-17T18:48:02.542Z,21.87
2022-08-17T18:50:39.784Z,21.86
2022-08-17T18:53:26.523Z,21.84
2022-08-17T18:56:13.812Z,21.80
2022-08-17T18:58:42.212Z,21.72
2022-08-17T19:01:20.098Z,21.64
2022-08-17T19:03:48.791Z,21.61
2022-08-17T19:06:17.178Z,21.55
2022-08-17T19:08:45.147Z,21.49
2022-08-17T19:11:16.008Z,21.47
2022-08-17T19:13:45.566Z,21.46
2022-08-17T19:16:14.926Z,21.48
2022-08-17T19:18:49.193Z,21.55
2022-08-17T19:21:30.537Z,21.65
2022-08-17T19:24:04.578Z,21.73
2022-08-17T19:26:55.263Z,21.76
2022-08-17T19:29:39.441Z,21.81
2022-08-17T19:32:08.966Z,21.87
2022-08-17T19:34:37.804Z,21.92
2022-08-17T19:37:11.671Z,21.91
2022-08-17T19:39:55.429Z,21.89
2022-08-17T19:42:42.491Z,21.90
2022-08-17T19:45:13.344Z,21.91
2022-08-17T19:47:55.409Z,21.91
2022-08-17T19:50:41.570Z,21.88
2022-08-17T19:53:27.711Z,21.83
2022-08-17T19:56:12.243Z,21.84
2022-08-17T19:58:58.655Z,21.80
2022-08-17T20:01:44.810Z,21.71
2022-08-17T20:04:12.613Z,21.66
2022-08-17T20:06:43.258Z,21.57
2022-08-17T20:09:14.936Z,21.49
2022-08-17T20:11:53.657Z,21.42
2022-08-17T20:14:24.025Z,21.35
2022-08-17T20:16:52.707Z,21.27
2022-08-17T20:19:39.343Z,21.22
2022-08-17T20:22:12.064Z,21.17
2022-08-17T20:24:44.532Z,21.12
2022-08-17T20:27:12.250Z,21.08
2022-08-17T20:30:00.508Z,21.03
2022-08-17T20:32:53.132Z,20.95
2022-08-17T20:35:23.649Z,20.92
2022-08-17T20:37:53.780Z,20.93
2022-08-17T20:40:25.986Z,20.94
2022-08-17T20:42:54.448Z,20.92
2022-08-17T20:45:22.376Z,20.88
2022-08-17T20:48:18.672Z,20.85
2022-08-17T20:50:43.787Z,20.81
2022-08-17T20:53:13.664Z,20.79
2022-08-17T20:55:52.408Z,20.78
2022-08-17T20:58:29.974Z,20.73
2022-08-17T21:01:01.817Z,20.66
2022-08-17T21:03:43.149Z,20.60
2022-08-17T21:06:19.428Z,20.56
2022-08-17T21:08:57.699Z,20.57
2022-08-17T21:11:56.989Z,20.58
2022-08-17T21:14:25.238Z,20.60
2022-08-17T21:17:02.907Z,20.65
2022-08-17T21:20:07.697Z,20.73
2022-08-17T21:22:43.246Z,20.80
2022-08-17T21:25:10.983Z,20.83
2022-08-17T21:27:50.904Z,20.81
2022-08-17T21:30:44.631Z,20.76
2022-08-17T21:33:25.316Z,20.75
2022-08-17T21:35:58.968Z,20.74
2022-08-17T21:38:57.386Z,20.71
2022-08-17T21:41:27.640Z,20.62
2022-08-17T21:44:11.793Z,20.56
2022-08-17T21:46:46.620Z,20.51
2022-08-17T21:49:17.835Z,20.42
2022-08-17T21:51:50.197Z,20.32
2022-08-17T21:54:26.725Z,20.25
2022-08-17T21:56:55.016Z,20.22
2022-08-17T21:59:26.209Z,20.16
2022-08-17T22:01:58.684Z,20.13
2022-08-17T22:04:37.163Z,20.11
2022-08-17T22:07:06.600Z,20.09
2022-08-17T22:09:40.715Z,20.11
2022-08-17T22:12:19.332Z,20.10
2022-08-17T22:14:57.987Z,20.11
2022-08-17T22:17:35.954Z,20.13
2022-08-17T22:20:14.553Z,20.14
2022-08-17T22:23:04.397Z,20.12
2022-08-17T22:25:35.999Z,20.09
2022-08-17T22:28:05.679Z,20.05
2022-08-17T22:30:41.519Z,20.01
2022-08-17T22:33:30.180Z,19.97
2022-08-17T22:36:29.179Z,19.93
2022-08-17T22:39:09.213Z,19.93
2022-08-17T22:41:42.684Z,19.94
2022-08-17T22:44:15.799Z,19.99
2022-08-17T22:46:52.373Z,20.03
2022-08-17T22:49:26.840Z,20.06
2022-08-17T22:52:05.858Z,20.10
2022-08-17T22:54:52.173Z,20.14
2022-08-17T22:57:40.979Z,20.19
2022-08-17T23:00:28.179Z,20.20
2022-08-17T23:03:05.705Z,20.21
2022-08-17T23:05:34.471Z,20.24
2022-08-17T23:08:03.121Z,20.23
2022-08-17T23:10:30.884Z,20.20
2022-08-17T23:12:59.973Z,20.17
2022-08-17T23:15:33.827Z,20.10
2022-08-17T23:18:04.737Z,20.02
2022-08-17T23:20:34.679Z,19.99
2022-08-17T23:23:03.844Z,19.99
2022-08-17T23:25:33.656Z,19.95
2022-08-17T23:28:03.000Z,19.95
2022-08-17T23:30:32.293Z,19.95
2022-08-17T23:33:04.970Z,19.90
2022-08-17T23:35:39.904Z,19.83
2022-08-17T23:38:09.909Z,19.79
2022-08-17T23:40:39.592Z,19.71
2022-08-17T23:43:23.457Z,19.68
2022-08-17T23:45:54.680Z,19.70
2022-08-17T23:48:28.555Z,19.72
2022-08-17T23:51:09.205Z,19.77
2022-08-17T23:53:40.287Z,19.81
2022-08-17T23:56:11.269Z,19.82
2022-08-17T23:58:42.235Z,19.82
